sensor_id;sensor_type;location;lat;lon;timestamp;P1;durP1;ratioP1;P2;durP2;ratioP2
63095;SDS011;49184;55.596;37.770;2023-08-20T00:00:10;60.25;;;31.88;;
63095;SDS011;49184;55.596;37.770;2023-08-20T00:02:41;66.45;;;31.20;;
63095;SDS011;49184;55.596;37.770;2023-08-20T00:05:09;79.00;;;30.85;;
63095;SDS011;49184;55.596;37.770;2023-08-20T00:10:02;61.25;;;31.27;;
63095;SDS011;49184;55.596;37.770;2023-08-20T00:12:30;53.72;;;30.48;;
63095;SDS011;49184;55.596;37.770;2023-08-20T00:14:57;63.30;;;31.40;;
63095;SDS011;49184;55.596;37.770;2023-08-20T00:17:32;61.67;;;30.77;;
63095;SDS011;49184;55.596;37.770;2023-08-20T00:19:59;57.08;;;30.90;;
63095;SDS011;49184;55.596;37.770;2023-08-20T00:22:29;54.30;;;31.45;;
63095;SDS011;49184;55.596;37.770;2023-08-20T00:27:22;59.75;;;31.33;;
63095;SDS011;49184;55.596;37.770;2023-08-20T00:29:48;65.75;;;31.60;;
63095;SDS011;49184;55.596;37.770;2023-08-20T00:32:14;48.50;;;30.23;;
63095;SDS011;49184;55.596;37.770;2023-08-20T00:34:40;52.10;;;30.42;;
63095;SDS011;49184;55.596;37.770;2023-08-20T00:37:07;53.05;;;30.90;;
63095;SDS011;49184;55.596;37.770;2023-08-20T00:39:33;48.88;;;30.27;;
63095;SDS011;49184;55.596;37.770;2023-08-20T00:41:59;57.88;;;30.15;;
63095;SDS011;49184;55.596;37.770;2023-08-20T00:44:25;101.43;;;32.03;;
63095;SDS011;49184;55.596;37.770;2023-08-20T00:46:51;90.93;;;34.97;;
63095;SDS011;49184;55.596;37.770;2023-08-20T00:49:18;105.22;;;36.60;;
63095;SDS011;49184;55.596;37.770;2023-08-20T00:51:44;60.30;;;31.42;;
63095;SDS011;49184;55.596;37.770;2023-08-20T00:54:11;55.90;;;31.33;;
63095;SDS011;49184;55.596;37.770;2023-08-20T00:56:37;56.55;;;31.05;;
63095;SDS011;49184;55.596;37.770;2023-08-20T00:59:04;52.83;;;31.02;;
63095;SDS011;49184;55.596;37.770;2023-08-20T01:01:31;57.70;;;31.13;;
63095;SDS011;49184;55.596;37.770;2023-08-20T01:03:57;50.45;;;29.63;;
63095;SDS011;49184;55.596;37.770;2023-08-20T01:12:16;60.08;;;34.03;;
63095;SDS011;49184;55.596;37.770;2023-08-20T01:14:44;60.08;;;33.42;;
63095;SDS011;49184;55.596;37.770;2023-08-20T01:17:10;57.08;;;32.25;;
63095;SDS011;49184;55.596;37.770;2023-08-20T01:19:36;56.70;;;33.38;;
63095;SDS011;49184;55.596;37.770;2023-08-20T01:30:00;56.42;;;32.65;;
63095;SDS011;49184;55.596;37.770;2023-08-20T01:32:30;63.42;;;32.05;;
63095;SDS011;49184;55.596;37.770;2023-08-20T01:34:56;51.33;;;31.15;;
63095;SDS011;49184;55.596;37.770;2023-08-20T01:37:22;51.97;;;30.57;;
63095;SDS011;49184;55.596;37.770;2023-08-20T01:39:48;62.33;;;30.90;;
63095;SDS011;49184;55.596;37.770;2023-08-20T01:42:14;74.93;;;31.00;;
63095;SDS011;49184;55.596;37.770;2023-08-20T01:44:40;61.97;;;30.90;;
63095;SDS011;49184;55.596;37.770;2023-08-20T01:47:07;64.90;;;31.85;;
63095;SDS011;49184;55.596;37.770;2023-08-20T01:49:33;60.10;;;31.70;;
63095;SDS011;49184;55.596;37.770;2023-08-20T01:51:59;60.67;;;31.67;;
63095;SDS011;49184;55.596;37.770;2023-08-20T01:54:25;59.40;;;31.90;;
63095;SDS011;49184;55.596;37.770;2023-08-20T01:56:51;66.18;;;32.05;;
63095;SDS011;49184;55.596;37.770;2023-08-20T01:59:17;64.80;;;30.70;;
63095;SDS011;49184;55.596;37.770;2023-08-20T02:01:44;72.07;;;30.45;;
63095;SDS011;49184;55.596;37.770;2023-08-20T02:04:10;65.03;;;32.17;;
63095;SDS011;49184;55.596;37.770;2023-08-20T02:06:36;61.45;;;29.95;;
63095;SDS011;49184;55.596;37.770;2023-08-20T02:09:02;60.47;;;30.40;;
63095;SDS011;49184;55.596;37.770;2023-08-20T02:11:29;72.35;;;31.17;;
63095;SDS011;49184;55.596;37.770;2023-08-20T02:13:55;61.00;;;29.85;;
63095;SDS011;49184;55.596;37.770;2023-08-20T02:16:21;74.82;;;31.00;;
63095;SDS011;49184;55.596;37.770;2023-08-20T02:18:47;86.10;;;32.55;;
63095;SDS011;49184;55.596;37.770;2023-08-20T02:21:14;87.03;;;31.27;;
63095;SDS011;49184;55.596;37.770;2023-08-20T02:23:40;70.22;;;32.13;;
63095;SDS011;49184;55.596;37.770;2023-08-20T02:26:07;65.93;;;30.95;;
63095;SDS011;49184;55.596;37.770;2023-08-20T02:28:33;61.17;;;30.67;;
63095;SDS011;49184;55.596;37.770;2023-08-20T02:31:03;63.42;;;32.75;;
63095;SDS011;49184;55.596;37.770;2023-08-20T02:33:30;78.47;;;33.33;;
63095;SDS011;49184;55.596;37.770;2023-08-20T02:36:00;62.70;;;32.83;;
63095;SDS011;49184;55.596;37.770;2023-08-20T02:38:29;63.20;;;33.65;;
63095;SDS011;49184;55.596;37.770;2023-08-20T02:40:56;70.82;;;32.72;;
63095;SDS011;49184;55.596;37.770;2023-08-20T02:43:22;59.42;;;34.50;;
63095;SDS011;49184;55.596;37.770;2023-08-20T02:45:48;68.70;;;34.83;;
63095;SDS011;49184;55.596;37.770;2023-08-20T02:48:17;64.18;;;33.53;;
63095;SDS011;49184;55.596;37.770;2023-08-20T02:50:43;61.22;;;33.53;;
63095;SDS011;49184;55.596;37.770;2023-08-20T02:53:09;71.90;;;34.42;;
63095;SDS011;49184;55.596;37.770;2023-08-20T02:55:35;69.38;;;32.67;;
63095;SDS011;49184;55.596;37.770;2023-08-20T02:58:01;67.87;;;32.87;;
63095;SDS011;49184;55.596;37.770;2023-08-20T03:00:29;66.78;;;34.28;;
63095;SDS011;49184;55.596;37.770;2023-08-20T03:02:56;68.00;;;34.42;;
63095;SDS011;49184;55.596;37.770;2023-08-20T03:05:23;64.20;;;33.10;;
63095;SDS011;49184;55.596;37.770;2023-08-20T03:07:49;71.97;;;32.80;;
63095;SDS011;49184;55.596;37.770;2023-08-20T03:10:15;60.17;;;33.78;;
63095;SDS011;49184;55.596;37.770;2023-08-20T03:12:41;60.33;;;33.55;;
63095;SDS011;49184;55.596;37.770;2023-08-20T03:15:07;57.45;;;34.08;;
63095;SDS011;49184;55.596;37.770;2023-08-20T03:17:34;57.83;;;33.55;;
63095;SDS011;49184;55.596;37.770;2023-08-20T03:20:00;61.63;;;32.87;;
63095;SDS011;49184;55.596;37.770;2023-08-20T03:22:28;65.75;;;33.92;;
63095;SDS011;49184;55.596;37.770;2023-08-20T03:24:54;52.90;;;31.98;;
63095;SDS011;49184;55.596;37.770;2023-08-20T03:27:20;66.53;;;33.97;;
63095;SDS011;49184;55.596;37.770;2023-08-20T03:29:46;54.33;;;32.67;;
63095;SDS011;49184;55.596;37.770;2023-08-20T03:32:12;54.53;;;31.58;;
63095;SDS011;49184;55.596;37.770;2023-08-20T03:34:38;52.20;;;31.23;;
63095;SDS011;49184;55.596;37.770;2023-08-20T03:37:04;58.10;;;32.05;;
63095;SDS011;49184;55.596;37.770;2023-08-20T03:39:31;51.70;;;29.75;;
63095;SDS011;49184;55.596;37.770;2023-08-20T03:41:57;48.10;;;29.73;;
63095;SDS011;49184;55.596;37.770;2023-08-20T03:44:23;45.80;;;27.13;;
63095;SDS011;49184;55.596;37.770;2023-08-20T03:46:49;36.03;;;23.67;;
63095;SDS011;49184;55.596;37.770;2023-08-20T03:49:16;35.05;;;20.95;;
63095;SDS011;49184;55.596;37.770;2023-08-20T03:51:42;36.27;;;20.60;;
63095;SDS011;49184;55.596;37.770;2023-08-20T03:54:08;27.77;;;20.13;;
63095;SDS011;49184;55.596;37.770;2023-08-20T03:56:35;32.00;;;18.90;;
63095;SDS011;49184;55.596;37.770;2023-08-20T04:01:29;40.72;;;19.88;;
63095;SDS011;49184;55.596;37.770;2023-08-20T04:03:56;41.75;;;20.52;;
63095;SDS011;49184;55.596;37.770;2023-08-20T04:06:22;37.90;;;20.00;;
63095;SDS011;49184;55.596;37.770;2023-08-20T04:08:48;33.90;;;19.20;;
63095;SDS011;49184;55.596;37.770;2023-08-20T04:11:14;29.17;;;16.83;;
63095;SDS011;49184;55.596;37.770;2023-08-20T04:13:40;29.88;;;17.13;;
63095;SDS011;49184;55.596;37.770;2023-08-20T04:16:09;36.67;;;17.08;;
63095;SDS011;49184;55.596;37.770;2023-08-20T04:21:02;33.50;;;16.80;;
63095;SDS011;49184;55.596;37.770;2023-08-20T04:23:28;29.50;;;15.95;;
63095;SDS011;49184;55.596;37.770;2023-08-20T04:25:54;25.90;;;16.50;;
63095;SDS011;49184;55.596;37.770;2023-08-20T04:28:20;28.50;;;17.50;;
63095;SDS011;49184;55.596;37.770;2023-08-20T04:30:48;34.00;;;19.38;;
63095;SDS011;49184;55.596;37.770;2023-08-20T04:33:14;34.63;;;19.38;;
63095;SDS011;49184;55.596;37.770;2023-08-20T04:35:44;32.35;;;20.58;;
63095;SDS011;49184;55.596;37.770;2023-08-20T04:38:10;35.30;;;21.70;;
63095;SDS011;49184;55.596;37.770;2023-08-20T04:40:36;40.70;;;21.88;;
63095;SDS011;49184;55.596;37.770;2023-08-20T04:43:02;37.58;;;23.65;;
63095;SDS011;49184;55.596;37.770;2023-08-20T04:45:28;39.33;;;24.00;;
63095;SDS011;49184;55.596;37.770;2023-08-20T04:47:56;38.17;;;24.52;;
63095;SDS011;49184;55.596;37.770;2023-08-20T04:52:49;35.35;;;22.20;;
63095;SDS011;49184;55.596;37.770;2023-08-20T04:55:16;38.22;;;23.17;;
63095;SDS011;49184;55.596;37.770;2023-08-20T05:00:09;36.45;;;20.73;;
63095;SDS011;49184;55.596;37.770;2023-08-20T05:02:49;36.92;;;21.52;;
63095;SDS011;49184;55.596;37.770;2023-08-20T05:05:17;44.83;;;20.80;;
63095;SDS011;49184;55.596;37.770;2023-08-20T05:07:44;31.05;;;19.60;;
63095;SDS011;49184;55.596;37.770;2023-08-20T05:10:10;31.83;;;20.27;;
63095;SDS011;49184;55.596;37.770;2023-08-20T05:12:36;32.77;;;19.70;;
63095;SDS011;49184;55.596;37.770;2023-08-20T05:15:03;35.05;;;19.63;;
63095;SDS011;49184;55.596;37.770;2023-08-20T05:17:29;29.60;;;18.30;;
63095;SDS011;49184;55.596;37.770;2023-08-20T05:19:56;27.73;;;17.63;;
63095;SDS011;49184;55.596;37.770;2023-08-20T05:22:23;33.72;;;18.58;;
63095;SDS011;49184;55.596;37.770;2023-08-20T05:24:49;32.50;;;18.50;;
63095;SDS011;49184;55.596;37.770;2023-08-20T05:27:16;25.65;;;17.60;;
63095;SDS011;49184;55.596;37.770;2023-08-20T05:29:48;32.78;;;18.88;;
63095;SDS011;49184;55.596;37.770;2023-08-20T05:32:16;30.05;;;19.08;;
63095;SDS011;49184;55.596;37.770;2023-08-20T05:34:42;28.08;;;18.17;;
63095;SDS011;49184;55.596;37.770;2023-08-20T05:37:12;27.90;;;18.83;;
63095;SDS011;49184;55.596;37.770;2023-08-20T05:39:42;28.92;;;18.98;;
63095;SDS011;49184;55.596;37.770;2023-08-20T05:42:09;27.20;;;17.88;;
63095;SDS011;49184;55.596;37.770;2023-08-20T05:44:38;27.25;;;18.08;;
63095;SDS011;49184;55.596;37.770;2023-08-20T05:47:09;25.15;;;17.05;;
63095;SDS011;49184;55.596;37.770;2023-08-20T05:49:35;25.07;;;17.37;;
63095;SDS011;49184;55.596;37.770;2023-08-20T05:52:01;32.70;;;17.17;;
63095;SDS011;49184;55.596;37.770;2023-08-20T05:54:28;28.08;;;16.95;;
63095;SDS011;49184;55.596;37.770;2023-08-20T05:56:57;25.40;;;16.52;;
63095;SDS011;49184;55.596;37.770;2023-08-20T05:59:24;27.52;;;16.27;;
63095;SDS011;49184;55.596;37.770;2023-08-20T06:01:50;26.83;;;18.25;;
63095;SDS011;49184;55.596;37.770;2023-08-20T06:04:20;25.25;;;17.08;;
63095;SDS011;49184;55.596;37.770;2023-08-20T06:06:46;24.40;;;15.93;;
63095;SDS011;49184;55.596;37.770;2023-08-20T06:09:13;27.00;;;16.38;;
63095;SDS011;49184;55.596;37.770;2023-08-20T06:11:38;33.07;;;18.27;;
63095;SDS011;49184;55.596;37.770;2023-08-20T06:14:05;23.80;;;16.67;;
63095;SDS011;49184;55.596;37.770;2023-08-20T06:16:31;27.60;;;17.63;;
63095;SDS011;49184;55.596;37.770;2023-08-20T06:18:58;27.33;;;17.60;;
63095;SDS011;49184;55.596;37.770;2023-08-20T06:21:26;30.98;;;18.88;;
63095;SDS011;49184;55.596;37.770;2023-08-20T06:23:55;26.60;;;18.70;;
63095;SDS011;49184;55.596;37.770;2023-08-20T06:26:21;30.80;;;19.90;;
63095;SDS011;49184;55.596;37.770;2023-08-20T06:28:47;31.33;;;19.27;;
63095;SDS011;49184;55.596;37.770;2023-08-20T06:31:13;32.13;;;19.75;;
63095;SDS011;49184;55.596;37.770;2023-08-20T06:33:39;31.55;;;20.35;;
63095;SDS011;49184;55.596;37.770;2023-08-20T06:36:05;33.93;;;21.13;;
63095;SDS011;49184;55.596;37.770;2023-08-20T06:38:32;26.50;;;19.67;;
63095;SDS011;49184;55.596;37.770;2023-08-20T06:41:00;33.50;;;18.95;;
63095;SDS011;49184;55.596;37.770;2023-08-20T06:43:28;34.20;;;19.40;;
63095;SDS011;49184;55.596;37.770;2023-08-20T06:45:54;35.60;;;20.60;;
63095;SDS011;49184;55.596;37.770;2023-08-20T06:48:20;30.48;;;20.00;;
63095;SDS011;49184;55.596;37.770;2023-08-20T06:50:48;31.88;;;18.80;;
63095;SDS011;49184;55.596;37.770;2023-08-20T06:53:14;28.73;;;19.27;;
63095;SDS011;49184;55.596;37.770;2023-08-20T06:55:40;30.23;;;19.57;;
63095;SDS011;49184;55.596;37.770;2023-08-20T06:58:07;30.10;;;19.23;;
63095;SDS011;49184;55.596;37.770;2023-08-20T07:00:33;33.13;;;20.73;;
63095;SDS011;49184;55.596;37.770;2023-08-20T07:02:59;33.42;;;20.17;;
63095;SDS011;49184;55.596;37.770;2023-08-20T07:05:26;31.40;;;20.98;;
63095;SDS011;49184;55.596;37.770;2023-08-20T07:07:52;30.67;;;19.42;;
63095;SDS011;49184;55.596;37.770;2023-08-20T07:10:18;28.02;;;18.85;;
63095;SDS011;49184;55.596;37.770;2023-08-20T07:12:45;39.35;;;23.15;;
63095;SDS011;49184;55.596;37.770;2023-08-20T07:15:14;35.60;;;22.02;;
63095;SDS011;49184;55.596;37.770;2023-08-20T07:17:43;36.42;;;20.23;;
63095;SDS011;49184;55.596;37.770;2023-08-20T07:20:09;31.25;;;20.80;;
63095;SDS011;49184;55.596;37.770;2023-08-20T07:22:35;35.50;;;22.83;;
63095;SDS011;49184;55.596;37.770;2023-08-20T07:25:01;29.30;;;18.88;;
63095;SDS011;49184;55.596;37.770;2023-08-20T07:27:28;29.80;;;18.90;;
63095;SDS011;49184;55.596;37.770;2023-08-20T07:29:54;29.25;;;17.77;;
63095;SDS011;49184;55.596;37.770;2023-08-20T07:32:20;26.27;;;18.00;;
63095;SDS011;49184;55.596;37.770;2023-08-20T07:34:48;26.17;;;17.67;;
63095;SDS011;49184;55.596;37.770;2023-08-20T07:37:14;35.10;;;18.17;;
63095;SDS011;49184;55.596;37.770;2023-08-20T07:39:43;32.28;;;17.50;;
63095;SDS011;49184;55.596;37.770;2023-08-20T07:42:12;25.73;;;17.35;;
63095;SDS011;49184;55.596;37.770;2023-08-20T07:44:38;24.73;;;16.42;;
63095;SDS011;49184;55.596;37.770;2023-08-20T07:47:06;22.75;;;15.88;;
63095;SDS011;49184;55.596;37.770;2023-08-20T07:49:32;34.03;;;19.05;;
63095;SDS011;49184;55.596;37.770;2023-08-20T07:51:59;28.55;;;17.38;;
63095;SDS011;49184;55.596;37.770;2023-08-20T07:54:25;20.65;;;15.95;;
63095;SDS011;49184;55.596;37.770;2023-08-20T07:56:52;26.15;;;14.32;;
63095;SDS011;49184;55.596;37.770;2023-08-20T07:59:19;25.50;;;14.68;;
63095;SDS011;49184;55.596;37.770;2023-08-20T08:01:46;23.00;;;14.65;;
63095;SDS011;49184;55.596;37.770;2023-08-20T08:04:14;21.90;;;12.77;;
63095;SDS011;49184;55.596;37.770;2023-08-20T08:06:43;19.27;;;12.73;;
63095;SDS011;49184;55.596;37.770;2023-08-20T08:09:18;19.25;;;12.65;;
63095;SDS011;49184;55.596;37.770;2023-08-20T08:11:49;21.33;;;12.65;;
63095;SDS011;49184;55.596;37.770;2023-08-20T08:14:17;22.88;;;12.73;;
63095;SDS011;49184;55.596;37.770;2023-08-20T08:16:45;22.35;;;13.00;;
63095;SDS011;49184;55.596;37.770;2023-08-20T08:19:13;19.38;;;11.73;;
63095;SDS011;49184;55.596;37.770;2023-08-20T08:21:41;27.48;;;12.30;;
63095;SDS011;49184;55.596;37.770;2023-08-20T08:24:08;26.58;;;13.43;;
63095;SDS011;49184;55.596;37.770;2023-08-20T08:26:37;15.63;;;10.02;;
63095;SDS011;49184;55.596;37.770;2023-08-20T08:29:05;24.02;;;11.07;;
63095;SDS011;49184;55.596;37.770;2023-08-20T08:31:35;21.98;;;11.75;;
63095;SDS011;49184;55.596;37.770;2023-08-20T08:34:03;23.42;;;11.82;;
63095;SDS011;49184;55.596;37.770;2023-08-20T08:36:32;21.27;;;12.05;;
63095;SDS011;49184;55.596;37.770;2023-08-20T08:38:58;24.13;;;11.60;;
63095;SDS011;49184;55.596;37.770;2023-08-20T08:41:26;18.92;;;11.77;;
63095;SDS011;49184;55.596;37.770;2023-08-20T08:43:55;19.20;;;11.52;;
63095;SDS011;49184;55.596;37.770;2023-08-20T08:46:22;19.77;;;12.52;;
63095;SDS011;49184;55.596;37.770;2023-08-20T08:48:50;22.02;;;12.52;;
63095;SDS011;49184;55.596;37.770;2023-08-20T08:51:18;20.40;;;11.50;;
63095;SDS011;49184;55.596;37.770;2023-08-20T08:53:45;22.63;;;12.85;;
63095;SDS011;49184;55.596;37.770;2023-08-20T08:56:12;15.38;;;10.77;;
63095;SDS011;49184;55.596;37.770;2023-08-20T08:58:38;14.40;;;11.57;;
63095;SDS011;49184;55.596;37.770;2023-08-20T09:01:04;17.25;;;11.13;;
63095;SDS011;49184;55.596;37.770;2023-08-20T09:03:31;20.23;;;12.68;;
63095;SDS011;49184;55.596;37.770;2023-08-20T09:05:58;26.90;;;11.27;;
63095;SDS011;49184;55.596;37.770;2023-08-20T09:08:32;17.80;;;11.18;;
63095;SDS011;49184;55.596;37.770;2023-08-20T09:11:00;19.17;;;10.57;;
63095;SDS011;49184;55.596;37.770;2023-08-20T09:16:02;18.88;;;11.32;;
63095;SDS011;49184;55.596;37.770;2023-08-20T09:18:41;21.67;;;11.43;;
63095;SDS011;49184;55.596;37.770;2023-08-20T09:21:11;18.48;;;11.40;;
63095;SDS011;49184;55.596;37.770;2023-08-20T09:23:39;19.52;;;10.68;;
63095;SDS011;49184;55.596;37.770;2023-08-20T09:26:07;20.08;;;10.23;;
63095;SDS011;49184;55.596;37.770;2023-08-20T09:28:43;17.30;;;11.85;;
63095;SDS011;49184;55.596;37.770;2023-08-20T09:31:13;18.02;;;11.52;;
63095;SDS011;49184;55.596;37.770;2023-08-20T09:33:49;18.63;;;11.23;;
63095;SDS011;49184;55.596;37.770;2023-08-20T09:36:29;26.13;;;11.63;;
63095;SDS011;49184;55.596;37.770;2023-08-20T09:38:56;21.90;;;10.80;;
63095;SDS011;49184;55.596;37.770;2023-08-20T09:41:23;21.05;;;11.80;;
63095;SDS011;49184;55.596;37.770;2023-08-20T09:43:51;18.35;;;10.20;;
63095;SDS011;49184;55.596;37.770;2023-08-20T09:46:21;13.00;;;9.32;;
63095;SDS011;49184;55.596;37.770;2023-08-20T09:48:51;22.50;;;9.73;;
63095;SDS011;49184;55.596;37.770;2023-08-20T09:51:24;15.95;;;9.02;;
63095;SDS011;49184;55.596;37.770;2023-08-20T09:56:46;19.10;;;11.18;;
63095;SDS011;49184;55.596;37.770;2023-08-20T09:59:19;12.45;;;9.38;;
63095;SDS011;49184;55.596;37.770;2023-08-20T10:04:13;18.05;;;10.02;;
63095;SDS011;49184;55.596;37.770;2023-08-20T10:06:42;16.13;;;10.00;;
63095;SDS011;49184;55.596;37.770;2023-08-20T10:09:09;19.13;;;10.43;;
63095;SDS011;49184;55.596;37.770;2023-08-20T10:11:35;16.70;;;10.38;;
63095;SDS011;49184;55.596;37.770;2023-08-20T10:14:04;17.83;;;10.15;;
63095;SDS011;49184;55.596;37.770;2023-08-20T10:16:32;13.55;;;8.80;;
63095;SDS011;49184;55.596;37.770;2023-08-20T10:19:03;22.73;;;10.40;;
63095;SDS011;49184;55.596;37.770;2023-08-20T10:21:31;11.40;;;9.18;;
63095;SDS011;49184;55.596;37.770;2023-08-20T10:24:02;13.65;;;9.45;;
63095;SDS011;49184;55.596;37.770;2023-08-20T10:26:30;21.13;;;9.40;;
63095;SDS011;49184;55.596;37.770;2023-08-20T10:32:04;18.67;;;10.05;;
63095;SDS011;49184;55.596;37.770;2023-08-20T10:34:38;19.10;;;10.05;;
63095;SDS011;49184;55.596;37.770;2023-08-20T10:37:14;16.10;;;10.35;;
63095;SDS011;49184;55.596;37.770;2023-08-20T10:39:42;17.27;;;10.68;;
63095;SDS011;49184;55.596;37.770;2023-08-20T10:42:09;16.42;;;9.63;;
63095;SDS011;49184;55.596;37.770;2023-08-20T10:45:11;19.15;;;11.55;;
63095;SDS011;49184;55.596;37.770;2023-08-20T10:50:11;21.73;;;10.80;;
63095;SDS011;49184;55.596;37.770;2023-08-20T10:52:41;15.30;;;9.88;;
63095;SDS011;49184;55.596;37.770;2023-08-20T10:55:12;16.45;;;11.00;;
63095;SDS011;49184;55.596;37.770;2023-08-20T10:57:40;15.77;;;10.45;;
63095;SDS011;49184;55.596;37.770;2023-08-20T11:00:07;20.63;;;11.75;;
63095;SDS011;49184;55.596;37.770;2023-08-20T11:02:38;13.63;;;10.80;;
63095;SDS011;49184;55.596;37.770;2023-08-20T11:05:09;18.15;;;11.45;;
63095;SDS011;49184;55.596;37.770;2023-08-20T11:07:48;22.05;;;11.05;;
63095;SDS011;49184;55.596;37.770;2023-08-20T11:10:15;18.20;;;11.57;;
63095;SDS011;49184;55.596;37.770;2023-08-20T11:12:43;24.17;;;11.60;;
63095;SDS011;49184;55.596;37.770;2023-08-20T11:15:11;12.85;;;10.35;;
63095;SDS011;49184;55.596;37.770;2023-08-20T11:17:41;16.27;;;11.48;;
63095;SDS011;49184;55.596;37.770;2023-08-20T11:20:09;25.40;;;11.75;;
63095;SDS011;49184;55.596;37.770;2023-08-20T11:22:39;18.65;;;11.98;;
63095;SDS011;49184;55.596;37.770;2023-08-20T11:25:12;20.92;;;14.95;;
63095;SDS011;49184;55.596;37.770;2023-08-20T11:27:42;26.58;;;17.42;;
63095;SDS011;49184;55.596;37.770;2023-08-20T11:30:09;33.90;;;21.17;;
63095;SDS011;49184;55.596;37.770;2023-08-20T11:32:39;21.25;;;14.55;;
63095;SDS011;49184;55.596;37.770;2023-08-20T11:37:33;34.78;;;22.58;;
63095;SDS011;49184;55.596;37.770;2023-08-20T11:40:01;35.42;;;22.05;;
63095;SDS011;49184;55.596;37.770;2023-08-20T11:42:27;20.67;;;15.95;;
63095;SDS011;49184;55.596;37.770;2023-08-20T11:44:56;22.60;;;15.13;;
63095;SDS011;49184;55.596;37.770;2023-08-20T11:47:23;19.75;;;15.40;;
63095;SDS011;49184;55.596;37.770;2023-08-20T11:50:01;24.02;;;15.23;;
63095;SDS011;49184;55.596;37.770;2023-08-20T11:52:32;21.27;;;13.63;;
63095;SDS011;49184;55.596;37.770;2023-08-20T11:55:00;25.60;;;19.10;;
63095;SDS011;49184;55.596;37.770;2023-08-20T11:57:30;25.20;;;15.70;;
63095;SDS011;49184;55.596;37.770;2023-08-20T12:00:04;17.65;;;13.65;;
63095;SDS011;49184;55.596;37.770;2023-08-20T12:02:41;28.42;;;11.85;;
63095;SDS011;49184;55.596;37.770;2023-08-20T12:05:07;22.90;;;9.80;;
63095;SDS011;49184;55.596;37.770;2023-08-20T12:07:33;22.23;;;9.93;;
63095;SDS011;49184;55.596;37.770;2023-08-20T12:10:18;18.30;;;10.98;;
63095;SDS011;49184;55.596;37.770;2023-08-20T12:12:58;10.80;;;6.05;;
63095;SDS011;49184;55.596;37.770;2023-08-20T12:15:24;8.05;;;6.57;;
63095;SDS011;49184;55.596;37.770;2023-08-20T12:18:00;15.77;;;9.57;;
63095;SDS011;49184;55.596;37.770;2023-08-20T12:20:32;28.42;;;11.63;;
63095;SDS011;49184;55.596;37.770;2023-08-20T12:23:03;16.83;;;6.60;;
63095;SDS011;49184;55.596;37.770;2023-08-20T12:25:33;18.98;;;8.20;;
63095;SDS011;49184;55.596;37.770;2023-08-20T12:28:02;17.27;;;8.55;;
63095;SDS011;49184;55.596;37.770;2023-08-20T12:30:31;11.10;;;6.80;;
63095;SDS011;49184;55.596;37.770;2023-08-20T12:32:58;13.40;;;7.85;;
63095;SDS011;49184;55.596;37.770;2023-08-20T12:35:25;14.98;;;8.00;;
63095;SDS011;49184;55.596;37.770;2023-08-20T12:37:52;15.68;;;7.70;;
63095;SDS011;49184;55.596;37.770;2023-08-20T12:40:18;15.05;;;8.27;;
63095;SDS011;49184;55.596;37.770;2023-08-20T12:42:44;13.13;;;8.00;;
63095;SDS011;49184;55.596;37.770;2023-08-20T12:45:10;14.95;;;7.72;;
63095;SDS011;49184;55.596;37.770;2023-08-20T12:47:40;19.10;;;9.27;;
63095;SDS011;49184;55.596;37.770;2023-08-20T12:50:06;15.75;;;8.18;;
63095;SDS011;49184;55.596;37.770;2023-08-20T12:52:33;17.35;;;9.32;;
63095;SDS011;49184;55.596;37.770;2023-08-20T12:54:59;18.27;;;10.68;;
63095;SDS011;49184;55.596;37.770;2023-08-20T12:59:52;21.50;;;10.43;;
63095;SDS011;49184;55.596;37.770;2023-08-20T13:02:18;16.43;;;8.87;;
63095;SDS011;49184;55.596;37.770;2023-08-20T13:04:47;12.60;;;7.35;;
63095;SDS011;49184;55.596;37.770;2023-08-20T13:07:13;15.13;;;7.97;;
63095;SDS011;49184;55.596;37.770;2023-08-20T13:09:39;12.35;;;8.02;;
63095;SDS011;49184;55.596;37.770;2023-08-20T13:14:38;11.63;;;7.53;;
63095;SDS011;49184;55.596;37.770;2023-08-20T13:17:06;12.45;;;7.72;;
63095;SDS011;49184;55.596;37.770;2023-08-20T13:19:33;14.15;;;6.90;;
63095;SDS011;49184;55.596;37.770;2023-08-20T13:22:01;15.73;;;6.88;;
63095;SDS011;49184;55.596;37.770;2023-08-20T13:24:26;13.07;;;6.05;;
63095;SDS011;49184;55.596;37.770;2023-08-20T13:26:53;9.45;;;5.45;;
63095;SDS011;49184;55.596;37.770;2023-08-20T13:29:19;9.63;;;4.45;;
63095;SDS011;49184;55.596;37.770;2023-08-20T13:31:45;7.50;;;4.30;;
63095;SDS011;49184;55.596;37.770;2023-08-20T13:34:11;10.65;;;4.60;;
63095;SDS011;49184;55.596;37.770;2023-08-20T13:36:39;9.32;;;3.90;;
63095;SDS011;49184;55.596;37.770;2023-08-20T13:39:09;7.70;;;4.32;;
63095;SDS011;49184;55.596;37.770;2023-08-20T13:41:39;8.77;;;4.35;;
63095;SDS011;49184;55.596;37.770;2023-08-20T13:44:07;10.48;;;4.85;;
63095;SDS011;49184;55.596;37.770;2023-08-20T13:46:34;10.85;;;4.90;;
63095;SDS011;49184;55.596;37.770;2023-08-20T13:49:04;13.65;;;4.32;;
63095;SDS011;49184;55.596;37.770;2023-08-20T13:51:30;8.70;;;5.55;;
63095;SDS011;49184;55.596;37.770;2023-08-20T13:53:57;31.98;;;5.40;;
63095;SDS011;49184;55.596;37.770;2023-08-20T13:58:51;11.57;;;5.25;;
63095;SDS011;49184;55.596;37.770;2023-08-20T14:01:20;10.75;;;5.82;;
63095;SDS011;49184;55.596;37.770;2023-08-20T14:03:49;9.27;;;5.28;;
63095;SDS011;49184;55.596;37.770;2023-08-20T14:08:42;14.23;;;6.03;;
63095;SDS011;49184;55.596;37.770;2023-08-20T14:11:09;8.98;;;6.13;;
63095;SDS011;49184;55.596;37.770;2023-08-20T14:13:35;11.00;;;6.65;;
63095;SDS011;49184;55.596;37.770;2023-08-20T14:16:01;15.35;;;7.05;;
63095;SDS011;49184;55.596;37.770;2023-08-20T14:18:28;11.93;;;6.32;;
63095;SDS011;49184;55.596;37.770;2023-08-20T14:20:54;10.10;;;7.05;;
63095;SDS011;49184;55.596;37.770;2023-08-20T14:23:21;21.70;;;7.32;;
63095;SDS011;49184;55.596;37.770;2023-08-20T14:25:47;15.10;;;7.43;;
63095;SDS011;49184;55.596;37.770;2023-08-20T14:28:15;11.68;;;7.18;;
63095;SDS011;49184;55.596;37.770;2023-08-20T14:30:45;13.55;;;7.78;;
63095;SDS011;49184;55.596;37.770;2023-08-20T14:33:11;24.88;;;13.68;;
63095;SDS011;49184;55.596;37.770;2023-08-20T14:35:38;15.02;;;8.65;;
63095;SDS011;49184;55.596;37.770;2023-08-20T14:38:05;15.43;;;9.57;;
63095;SDS011;49184;55.596;37.770;2023-08-20T14:40:39;12.23;;;9.15;;
63095;SDS011;49184;55.596;37.770;2023-08-20T14:43:09;13.48;;;7.93;;
63095;SDS011;49184;55.596;37.770;2023-08-20T14:45:36;19.27;;;8.73;;
63095;SDS011;49184;55.596;37.770;2023-08-20T14:48:05;12.55;;;8.35;;
63095;SDS011;49184;55.596;37.770;2023-08-20T14:50:34;18.88;;;9.50;;
63095;SDS011;49184;55.596;37.770;2023-08-20T14:53:00;17.92;;;11.00;;
63095;SDS011;49184;55.596;37.770;2023-08-20T14:55:31;14.57;;;9.80;;
63095;SDS011;49184;55.596;37.770;2023-08-20T14:57:57;26.13;;;10.88;;
63095;SDS011;49184;55.596;37.770;2023-08-20T15:00:23;16.58;;;9.40;;
63095;SDS011;49184;55.596;37.770;2023-08-20T15:02:50;20.83;;;9.10;;
63095;SDS011;49184;55.596;37.770;2023-08-20T15:05:16;12.75;;;9.13;;
63095;SDS011;49184;55.596;37.770;2023-08-20T15:07:43;20.63;;;9.07;;